sensor_id;sensor_type;location;lat;lon;timestamp;P1;durP1;ratioP1;P2;durP2;ratioP2
84984;SDS011;75299;50.018;20.014;2024-03-23T00:55:23;27.58;;;17.60;;
84984;SDS011;75299;50.018;20.014;2024-03-23T00:58:41;32.73;;;17.20;;
84984;SDS011;75299;50.018;20.014;2024-03-23T01:01:59;29.23;;;17.45;;
84984;SDS011;75299;50.018;20.014;2024-03-23T01:05:16;26.35;;;17.78;;
84984;SDS011;75299;50.018;20.014;2024-03-23T01:08:34;30.38;;;18.25;;
84984;SDS011;75299;50.018;20.014;2024-03-23T01:11:51;26.70;;;18.03;;
84984;SDS011;75299;50.018;20.014;2024-03-23T01:15:10;28.35;;;18.38;;
84984;SDS011;75299;50.018;20.014;2024-03-23T01:18:28;32.43;;;19.50;;
84984;SDS011;75299;50.018;20.014;2024-03-23T01:21:45;33.33;;;19.25;;
84984;SDS011;75299;50.018;20.014;2024-03-23T01:25:03;31.78;;;20.08;;
84984;SDS011;75299;50.018;20.014;2024-03-23T01:28:22;30.90;;;20.30;;
84984;SDS011;75299;50.018;20.014;2024-03-23T01:31:39;31.68;;;20.75;;
84984;SDS011;75299;50.018;20.014;2024-03-23T01:34:57;29.23;;;20.40;;
84984;SDS011;75299;50.018;20.014;2024-03-23T01:38:14;31.90;;;20.65;;
84984;SDS011;75299;50.018;20.014;2024-03-23T01:41:32;45.08;;;22.50;;
84984;SDS011;75299;50.018;20.014;2024-03-23T01:44:51;36.55;;;22.35;;
84984;SDS011;75299;50.018;20.014;2024-03-23T01:48:08;37.05;;;23.28;;
84984;SDS011;75299;50.018;20.014;2024-03-23T01:51:26;35.18;;;23.68;;
84984;SDS011;75299;50.018;20.014;2024-03-23T01:54:44;37.48;;;25.58;;
84984;SDS011;75299;50.018;20.014;2024-03-23T01:58:02;38.53;;;24.28;;
84984;SDS011;75299;50.018;20.014;2024-03-23T02:01:19;40.55;;;25.65;;
84984;SDS011;75299;50.018;20.014;2024-03-23T02:04:38;38.68;;;25.55;;
84984;SDS011;75299;50.018;20.014;2024-03-23T02:07:55;42.20;;;26.60;;
84984;SDS011;75299;50.018;20.014;2024-03-23T02:14:27;45.13;;;26.58;;
84984;SDS011;75299;50.018;20.014;2024-03-23T02:17:45;42.83;;;28.38;;
84984;SDS011;75299;50.018;20.014;2024-03-23T02:21:02;46.28;;;28.30;;
84984;SDS011;75299;50.018;20.014;2024-03-23T02:24:19;43.63;;;27.53;;
84984;SDS011;75299;50.018;20.014;2024-03-23T02:27:36;47.00;;;29.03;;
84984;SDS011;75299;50.018;20.014;2024-03-23T02:34:09;42.60;;;27.13;;
84984;SDS011;75299;50.018;20.014;2024-03-23T02:37:26;37.55;;;25.13;;
84984;SDS011;75299;50.018;20.014;2024-03-23T02:40:44;45.00;;;27.80;;
84984;SDS011;75299;50.018;20.014;2024-03-23T02:47:18;47.13;;;28.40;;
84984;SDS011;75299;50.018;20.014;2024-03-23T02:50:35;48.88;;;30.60;;
84984;SDS011;75299;50.018;20.014;2024-03-23T02:57:08;49.30;;;31.95;;
84984;SDS011;75299;50.018;20.014;2024-03-23T03:00:25;50.05;;;31.00;;
84984;SDS011;75299;50.018;20.014;2024-03-23T03:06:57;50.63;;;30.13;;
84984;SDS011;75299;50.018;20.014;2024-03-23T03:10:14;49.70;;;30.48;;
84984;SDS011;75299;50.018;20.014;2024-03-23T03:13:32;45.45;;;30.05;;
84984;SDS011;75299;50.018;20.014;2024-03-23T03:16:49;48.88;;;29.13;;
84984;SDS011;75299;50.018;20.014;2024-03-23T03:23:25;51.90;;;29.75;;
84984;SDS011;75299;50.018;20.014;2024-03-23T03:26:43;55.05;;;33.30;;
84984;SDS011;75299;50.018;20.014;2024-03-23T03:33:16;50.58;;;30.93;;
84984;SDS011;75299;50.018;20.014;2024-03-23T03:36:33;48.73;;;31.98;;
84984;SDS011;75299;50.018;20.014;2024-03-23T03:43:05;52.90;;;35.00;;
84984;SDS011;75299;50.018;20.014;2024-03-23T03:46:22;46.45;;;29.28;;
84984;SDS011;75299;50.018;20.014;2024-03-23T03:52:54;54.03;;;29.00;;
84984;SDS011;75299;50.018;20.014;2024-03-23T03:56:11;45.68;;;27.55;;
84984;SDS011;75299;50.018;20.014;2024-03-23T03:59:30;47.78;;;28.18;;
84984;SDS011;75299;50.018;20.014;2024-03-23T04:02:47;48.50;;;29.05;;
84984;SDS011;75299;50.018;20.014;2024-03-23T04:06:05;52.55;;;28.15;;
84984;SDS011;75299;50.018;20.014;2024-03-23T04:09:22;46.55;;;27.58;;
84984;SDS011;75299;50.018;20.014;2024-03-23T04:12:39;40.43;;;26.23;;
84984;SDS011;75299;50.018;20.014;2024-03-23T04:15:58;41.48;;;25.60;;
84984;SDS011;75299;50.018;20.014;2024-03-23T04:19:17;41.80;;;26.15;;
84984;SDS011;75299;50.018;20.014;2024-03-23T04:25:49;36.63;;;24.63;;
84984;SDS011;75299;50.018;20.014;2024-03-23T04:29:06;42.30;;;25.23;;
84984;SDS011;75299;50.018;20.014;2024-03-23T04:32:24;39.98;;;24.55;;
84984;SDS011;75299;50.018;20.014;2024-03-23T04:35:42;40.93;;;25.00;;
84984;SDS011;75299;50.018;20.014;2024-03-23T04:39:03;41.33;;;24.08;;
84984;SDS011;75299;50.018;20.014;2024-03-23T04:42:21;40.20;;;24.03;;
84984;SDS011;75299;50.018;20.014;2024-03-23T04:45:38;36.53;;;23.93;;
84984;SDS011;75299;50.018;20.014;2024-03-23T04:48:56;44.23;;;23.33;;
84984;SDS011;75299;50.018;20.014;2024-03-23T04:52:14;36.00;;;23.20;;
84984;SDS011;75299;50.018;20.014;2024-03-23T04:55:32;38.78;;;24.03;;
84984;SDS011;75299;50.018;20.014;2024-03-23T04:58:50;36.13;;;24.50;;
84984;SDS011;75299;50.018;20.014;2024-03-23T05:02:09;43.40;;;23.85;;
84984;SDS011;75299;50.018;20.014;2024-03-23T05:05:27;41.35;;;24.75;;
84984;SDS011;75299;50.018;20.014;2024-03-23T05:08:46;39.48;;;23.02;;
84984;SDS011;75299;50.018;20.014;2024-03-23T05:12:04;40.03;;;23.90;;
84984;SDS011;75299;50.018;20.014;2024-03-23T05:15:22;40.13;;;24.13;;
84984;SDS011;75299;50.018;20.014;2024-03-23T05:18:43;39.00;;;24.03;;
84984;SDS011;75299;50.018;20.014;2024-03-23T05:22:00;34.55;;;23.02;;
84984;SDS011;75299;50.018;20.014;2024-03-23T05:25:18;35.45;;;23.75;;
84984;SDS011;75299;50.018;20.014;2024-03-23T05:28:36;41.33;;;24.43;;
84984;SDS011;75299;50.018;20.014;2024-03-23T05:31:54;41.43;;;25.93;;
84984;SDS011;75299;50.018;20.014;2024-03-23T05:35:11;41.85;;;24.75;;
84984;SDS011;75299;50.018;20.014;2024-03-23T05:38:29;45.48;;;26.70;;
84984;SDS011;75299;50.018;20.014;2024-03-23T05:41:46;40.83;;;27.58;;
84984;SDS011;75299;50.018;20.014;2024-03-23T05:45:04;85.83;;;46.48;;
84984;SDS011;75299;50.018;20.014;2024-03-23T05:48:23;49.65;;;29.48;;
84984;SDS011;75299;50.018;20.014;2024-03-23T05:51:41;45.75;;;26.70;;
84984;SDS011;75299;50.018;20.014;2024-03-23T16:24:13;5.35;;;2.53;;
84984;SDS011;75299;50.018;20.014;2024-03-23T16:27:31;10.35;;;2.70;;
84984;SDS011;75299;50.018;20.014;2024-03-23T16:30:54;2.58;;;1.60;;
84984;SDS011;75299;50.018;20.014;2024-03-23T16:34:16;5.20;;;1.87;;
84984;SDS011;75299;50.018;20.014;2024-03-23T16:37:34;6.43;;;1.88;;
84984;SDS011;75299;50.018;20.014;2024-03-23T16:40:55;3.30;;;1.78;;
84984;SDS011;75299;50.018;20.014;2024-03-23T16:44:14;2.98;;;1.63;;
84984;SDS011;75299;50.018;20.014;2024-03-23T16:47:31;5.25;;;1.80;;
84984;SDS011;75299;50.018;20.014;2024-03-23T16:50:49;3.95;;;1.75;;
84984;SDS011;75299;50.018;20.014;2024-03-23T16:54:06;4.25;;;2.10;;
84984;SDS011;75299;50.018;20.014;2024-03-23T16:57:25;4.43;;;2.45;;
84984;SDS011;75299;50.018;20.014;2024-03-23T17:00:42;5.98;;;2.38;;
84984;SDS011;75299;50.018;20.014;2024-03-23T17:04:01;4.53;;;2.20;;
84984;SDS011;75299;50.018;20.014;2024-03-23T17:07:20;4.83;;;2.05;;
84984;SDS011;75299;50.018;20.014;2024-03-23T17:10:37;5.05;;;2.20;;
84984;SDS011;75299;50.018;20.014;2024-03-23T17:13:57;7.58;;;2.73;;
84984;SDS011;75299;50.018;20.014;2024-03-23T17:17:18;6.63;;;2.00;;
84984;SDS011;75299;50.018;20.014;2024-03-23T17:20:36;3.90;;;2.08;;
84984;SDS011;75299;50.018;20.014;2024-03-23T17:23:55;4.55;;;2.18;;
84984;SDS011;75299;50.018;20.014;2024-03-23T17:27:13;4.28;;;2.55;;
84984;SDS011;75299;50.018;20.014;2024-03-23T17:30:30;6.58;;;2.73;;
84984;SDS011;75299;50.018;20.014;2024-03-23T17:33:50;5.08;;;2.63;;
84984;SDS011;75299;50.018;20.014;2024-03-23T17:37:08;4.48;;;2.60;;
84984;SDS011;75299;50.018;20.014;2024-03-23T17:40:28;6.25;;;2.83;;
84984;SDS011;75299;50.018;20.014;2024-03-23T17:43:48;5.43;;;2.75;;
84984;SDS011;75299;50.018;20.014;2024-03-23T17:47:07;6.38;;;3.33;;
84984;SDS011;75299;50.018;20.014;2024-03-23T17:50:25;8.70;;;3.60;;
84984;SDS011;75299;50.018;20.014;2024-03-23T17:53:47;8.05;;;3.90;;
84984;SDS011;75299;50.018;20.014;2024-03-23T17:57:06;7.63;;;4.48;;
84984;SDS011;75299;50.018;20.014;2024-03-23T18:00:23;6.80;;;3.90;;
84984;SDS011;75299;50.018;20.014;2024-03-23T18:03:40;5.25;;;3.28;;
84984;SDS011;75299;50.018;20.014;2024-03-23T18:06:58;5.85;;;2.80;;
84984;SDS011;75299;50.018;20.014;2024-03-23T18:10:17;6.53;;;2.13;;
84984;SDS011;75299;50.018;20.014;2024-03-23T18:13:34;3.70;;;2.38;;
84984;SDS011;75299;50.018;20.014;2024-03-23T18:16:53;3.88;;;2.40;;
84984;SDS011;75299;50.018;20.014;2024-03-23T18:20:11;4.23;;;2.58;;
84984;SDS011;75299;50.018;20.014;2024-03-23T18:23:31;4.88;;;2.95;;
84984;SDS011;75299;50.018;20.014;2024-03-23T18:26:47;5.70;;;2.80;;
84984;SDS011;75299;50.018;20.014;2024-03-23T18:30:09;5.88;;;2.58;;
84984;SDS011;75299;50.018;20.014;2024-03-23T18:33:32;4.85;;;2.55;;
84984;SDS011;75299;50.018;20.014;2024-03-23T18:36:50;6.93;;;4.30;;
84984;SDS011;75299;50.018;20.014;2024-03-23T18:40:09;6.43;;;4.00;;
84984;SDS011;75299;50.018;20.014;2024-03-23T18:43:27;3.63;;;3.00;;
84984;SDS011;75299;50.018;20.014;2024-03-23T18:46:45;4.93;;;3.28;;
84984;SDS011;75299;50.018;20.014;2024-03-23T18:50:02;7.70;;;3.50;;
84984;SDS011;75299;50.018;20.014;2024-03-23T18:53:21;8.08;;;4.25;;
84984;SDS011;75299;50.018;20.014;2024-03-23T18:56:41;5.75;;;3.73;;
84984;SDS011;75299;50.018;20.014;2024-03-23T19:00:00;5.58;;;3.60;;
84984;SDS011;75299;50.018;20.014;2024-03-23T19:03:21;9.48;;;4.30;;
84984;SDS011;75299;50.018;20.014;2024-03-23T19:06:41;6.40;;;4.45;;
84984;SDS011;75299;50.018;20.014;2024-03-23T19:09:58;8.48;;;5.25;;
84984;SDS011;75299;50.018;20.014;2024-03-23T19:13:16;8.25;;;5.83;;
84984;SDS011;75299;50.018;20.014;2024-03-23T19:16:34;7.33;;;6.18;;
84984;SDS011;75299;50.018;20.014;2024-03-23T19:19:54;8.43;;;6.50;;
84984;SDS011;75299;50.018;20.014;2024-03-23T19:23:12;12.05;;;7.10;;
84984;SDS011;75299;50.018;20.014;2024-03-23T19:26:32;11.83;;;7.05;;
84984;SDS011;75299;50.018;20.014;2024-03-23T19:29:51;9.03;;;7.13;;
84984;SDS011;75299;50.018;20.014;2024-03-23T19:33:11;13.03;;;7.60;;
84984;SDS011;75299;50.018;20.014;2024-03-23T19:36:32;8.98;;;7.00;;
84984;SDS011;75299;50.018;20.014;2024-03-23T19:39:52;9.83;;;7.55;;
84984;SDS011;75299;50.018;20.014;2024-03-23T19:43:11;11.20;;;8.10;;
84984;SDS011;75299;50.018;20.014;2024-03-23T19:46:28;9.38;;;7.93;;
84984;SDS011;75299;50.018;20.014;2024-03-23T19:49:46;12.55;;;9.33;;
84984;SDS011;75299;50.018;20.014;2024-03-23T19:53:03;11.60;;;10.20;;
84984;SDS011;75299;50.018;20.014;2024-03-23T19:56:20;11.53;;;9.73;;
84984;SDS011;75299;50.018;20.014;2024-03-23T19:59:38;11.03;;;9.75;;
84984;SDS011;75299;50.018;20.014;2024-03-23T20:02:56;12.35;;;10.38;;
84984;SDS011;75299;50.018;20.014;2024-03-23T20:06:14;11.33;;;9.75;;
84984;SDS011;75299;50.018;20.014;2024-03-23T20:09:32;10.90;;;9.33;;
84984;SDS011;75299;50.018;20.014;2024-03-23T20:12:50;12.10;;;9.73;;
84984;SDS011;75299;50.018;20.014;2024-03-23T20:16:08;12.78;;;10.55;;
84984;SDS011;75299;50.018;20.014;2024-03-23T20:19:26;11.93;;;9.70;;
84984;SDS011;75299;50.018;20.014;2024-03-23T20:22:43;11.20;;;10.03;;
84984;SDS011;75299;50.018;20.014;2024-03-23T20:26:02;14.13;;;10.23;;
84984;SDS011;75299;50.018;20.014;2024-03-23T20:29:21;11.18;;;9.40;;
84984;SDS011;75299;50.018;20.014;2024-03-23T20:32:39;12.53;;;9.90;;
84984;SDS011;75299;50.018;20.014;2024-03-23T20:35:58;10.03;;;8.60;;
84984;SDS011;75299;50.018;20.014;2024-03-23T20:39:16;10.60;;;8.88;;
84984;SDS011;75299;50.018;20.014;2024-03-23T20:42:34;10.23;;;8.15;;
84984;SDS011;75299;50.018;20.014;2024-03-23T20:45:57;11.13;;;7.40;;
84984;SDS011;75299;50.018;20.014;2024-03-23T20:49:16;10.45;;;7.58;;
84984;SDS011;75299;50.018;20.014;2024-03-23T20:52:34;10.13;;;7.98;;
84984;SDS011;75299;50.018;20.014;2024-03-23T20:55:54;7.80;;;6.45;;
84984;SDS011;75299;50.018;20.014;2024-03-23T20:59:17;8.10;;;6.20;;
84984;SDS011;75299;50.018;20.014;2024-03-23T21:02:37;7.83;;;6.50;;
84984;SDS011;75299;50.018;20.014;2024-03-23T21:05:56;8.98;;;6.73;;
84984;SDS011;75299;50.018;20.014;2024-03-23T21:09:15;9.60;;;7.18;;
84984;SDS011;75299;50.018;20.014;2024-03-23T21:12:33;9.75;;;7.38;;
84984;SDS011;75299;50.018;20.014;2024-03-23T21:15:52;10.50;;;7.35;;
84984;SDS011;75299;50.018;20.014;2024-03-23T21:19:10;10.00;;;7.63;;
84984;SDS011;75299;50.018;20.014;2024-03-23T21:22:27;10.78;;;7.50;;
84984;SDS011;75299;50.018;20.014;2024-03-23T21:25:45;9.28;;;7.58;;
84984;SDS011;75299;50.018;20.014;2024-03-23T21:29:10;9.33;;;7.53;;
84984;SDS011;75299;50.018;20.014;2024-03-23T21:32:28;8.90;;;7.00;;
84984;SDS011;75299;50.018;20.014;2024-03-23T21:35:54;10.88;;;7.88;;
84984;SDS011;75299;50.018;20.014;2024-03-23T21:39:13;9.30;;;7.13;;
84984;SDS011;75299;50.018;20.014;2024-03-23T21:42:33;11.13;;;7.63;;
84984;SDS011;75299;50.018;20.014;2024-03-23T21:45:55;9.53;;;6.78;;
84984;SDS011;75299;50.018;20.014;2024-03-23T21:49:16;10.03;;;7.25;;
84984;SDS011;75299;50.018;20.014;2024-03-23T21:52:34;10.03;;;6.90;;
84984;SDS011;75299;50.018;20.014;2024-03-23T21:55:53;9.90;;;7.00;;
84984;SDS011;75299;50.018;20.014;2024-03-23T21:59:12;11.53;;;6.73;;
84984;SDS011;75299;50.018;20.014;2024-03-23T22:02:32;7.90;;;5.83;;
84984;SDS011;75299;50.018;20.014;2024-03-23T22:05:54;10.63;;;5.80;;
84984;SDS011;75299;50.018;20.014;2024-03-23T22:09:14;8.05;;;5.28;;
84984;SDS011;75299;50.018;20.014;2024-03-23T22:12:31;9.05;;;5.53;;
84984;SDS011;75299;50.018;20.014;2024-03-23T22:15:57;8.90;;;5.00;;
84984;SDS011;75299;50.018;20.014;2024-03-23T22:19:17;7.20;;;4.83;;
84984;SDS011;75299;50.018;20.014;2024-03-23T22:22:35;8.18;;;4.40;;
84984;SDS011;75299;50.018;20.014;2024-03-23T22:25:52;7.58;;;4.35;;
84984;SDS011;75299;50.018;20.014;2024-03-23T22:29:09;7.95;;;4.28;;
84984;SDS011;75299;50.018;20.014;2024-03-23T22:32:30;6.80;;;4.05;;
84984;SDS011;75299;50.018;20.014;2024-03-23T22:35:49;6.18;;;3.90;;
84984;SDS011;75299;50.018;20.014;2024-03-23T22:39:07;7.43;;;3.30;;
84984;SDS011;75299;50.018;20.014;2024-03-23T22:42:24;9.48;;;4.90;;
84984;SDS011;75299;50.018;20.014;2024-03-23T22:45:44;8.48;;;4.03;;
84984;SDS011;75299;50.018;20.014;2024-03-23T22:49:08;7.18;;;4.08;;
84984;SDS011;75299;50.018;20.014;2024-03-23T22:52:26;9.05;;;4.10;;
84984;SDS011;75299;50.018;20.014;2024-03-23T22:55:46;8.70;;;4.08;;
84984;SDS011;75299;50.018;20.014;2024-03-23T22:59:04;9.05;;;4.20;;
84984;SDS011;75299;50.018;20.014;2024-03-23T23:02:22;10.05;;;4.73;;
84984;SDS011;75299;50.018;20.014;2024-03-23T23:05:39;9.23;;;4.25;;
84984;SDS011;75299;50.018;20.014;2024-03-23T23:08:57;10.50;;;4.45;;
84984;SDS011;75299;50.018;20.014;2024-03-23T23:12:14;11.13;;;4.95;;
84984;SDS011;75299;50.018;20.014;2024-03-23T23:15:35;10.18;;;5.05;;
84984;SDS011;75299;50.018;20.014;2024-03-23T23:18:53;12.70;;;5.00;;
84984;SDS011;75299;50.018;20.014;2024-03-23T23:22:11;12.28;;;5.05;;
84984;SDS011;75299;50.018;20.014;2024-03-23T23:25:28;9.15;;;5.15;;
84984;SDS011;75299;50.018;20.014;2024-03-23T23:28:46;13.45;;;5.35;;
84984;SDS011;75299;50.018;20.014;2024-03-23T23:32:03;10.23;;;4.58;;
84984;SDS011;75299;50.018;20.014;2024-03-23T23:35:21;9.48;;;4.73;;
84984;SDS011;75299;50.018;20.014;2024-03-23T23:38:38;11.78;;;5.38;;
84984;SDS011;75299;50.018;20.014;2024-03-23T23:41:57;11.83;;;5.23;;
84984;SDS011;75299;50.018;20.014;2024-03-23T23:45:14;20.98;;;10.70;;
84984;SDS011;75299;50.018;20.014;2024-03-23T23:48:31;12.30;;;5.95;;
84984;SDS011;75299;50.018;20.014;2024-03-23T23:51:48;14.18;;;5.85;;
84984;SDS011;75299;50.018;20.014;2024-03-23T23:55:06;11.08;;;5.70;;
84984;SDS011;75299;50.018;20.014;2024-03-23T23:58:23;10.75;;;4.50;;
